No particular awareness of the weather is required.    There are no Weather-warnings


Meteo18 Weather Cam more information Meteo18 Weather Cam


Thunder radar more information blitzortung!


Rain radar more information rain snow radar


Visit our other weather sites:

Template documentation
and downloads

And another site



Weather Underground History page Text

Daily Summary for April 14, 2016 Units:  Metric    English   Both
« Previous Day
Next Day »
Daily Weekly Monthly Yearly Custom
  High: Low: Average:
Temperature: 17.7 °C 3.9 °C 10.5 °C
Dew Point: 11.8 °C 3.5 °C 8.1 °C
Humidity: 98 % 59 % 86 %
Wind Speed: 8.0 km/h 0.0 km/h 0.7 km/h
Wind Gust: 14.5 km/h - -
Wind:- - WSW
Pressure: 1013.4 hPa 1009.0 hPa -
Precipitation: 2.0 mm    
Historical Graphs
 
 
Tabular Data for April 14, 2016
Time Temperature Dew Point Pressure Wind Wind Speed Wind Gust Humidity Rainfall Rate (Hourly)
00:02 8.5 °C 7.6 °C 1012.4 hPa Calm   8.0 km/h 94 % 0.0 mm
00:07 8.5 °C 7.6 °C 1012.4 hPa Calm   8.0 km/h 94 % 0.0 mm
00:12 8.6 °C 7.7 °C 1012.8 hPa Calm   4.8 km/h 94 % 0.0 mm
00:17 8.6 °C 7.7 °C 1012.8 hPa Calm   4.8 km/h 94 % 0.0 mm
00:22 8.6 °C 7.7 °C 1012.8 hPa Calm   4.8 km/h 94 % 0.0 mm
00:32 8.7 °C 7.8 °C 1012.8 hPa Calm   3.2 km/h 94 % 0.0 mm
00:37 8.7 °C 7.8 °C 1012.8 hPa SE 1.6 km/h 3.2 km/h 94 % 0.0 mm
00:42 8.7 °C 7.8 °C 1012.8 hPa Calm   1.6 km/h 94 % 0.0 mm
00:47 8.7 °C 7.8 °C 1012.8 hPa Calm   1.6 km/h 94 % 0.0 mm
00:52 8.6 °C 7.7 °C 1012.8 hPa SW 1.6 km/h 1.6 km/h 94 % 0.0 mm
00:57 8.7 °C 7.8 °C 1012.8 hPa Calm   1.6 km/h 94 % 0.0 mm
01:02 8.6 °C 7.7 °C 1012.8 hPa Calm   1.6 km/h 94 % 0.0 mm
01:12 8.6 °C 7.5 °C 1012.8 hPa Calm   3.2 km/h 93 % 0.0 mm
01:17 8.6 °C 7.5 °C 1012.8 hPa SW 1.6 km/h 3.2 km/h 93 % 0.0 mm
01:22 8.6 °C 7.5 °C 1012.8 hPa Calm   3.2 km/h 93 % 0.0 mm
01:27 8.6 °C 7.5 °C 1012.8 hPa Calm   3.2 km/h 93 % 0.0 mm
01:32 8.6 °C 7.5 °C 1012.8 hPa SW 1.6 km/h 3.2 km/h 93 % 0.0 mm
01:37 8.5 °C 7.4 °C 1012.8 hPa Calm   3.2 km/h 93 % 0.0 mm
01:42 8.5 °C 7.4 °C 1012.8 hPa SW 1.6 km/h 3.2 km/h 93 % 0.0 mm
01:47 8.4 °C 7.3 °C 1012.8 hPa Calm   3.2 km/h 93 % 0.0 mm
01:52 8.4 °C 7.3 °C 1012.8 hPa Calm   3.2 km/h 93 % 0.0 mm
01:57 8.4 °C 7.3 °C 1012.8 hPa Calm   8.0 km/h 93 % 0.0 mm
02:02 8.4 °C 7.5 °C 1012.8 hPa Calm   8.0 km/h 94 % 0.0 mm
02:07 8.4 °C 7.5 °C 1012.8 hPa WSW 1.6 km/h 4.8 km/h 94 % 0.0 mm
02:17 8.3 °C 7.4 °C 1012.8 hPa Calm   4.8 km/h 94 % 0.0 mm
02:22 8.3 °C 7.4 °C 1012.8 hPa Calm   4.8 km/h 94 % 0.0 mm
02:27 8.3 °C 7.2 °C 1012.8 hPa Calm   4.8 km/h 93 % 0.0 mm
02:32 8.3 °C 7.2 °C 1012.8 hPa SW 1.6 km/h 4.8 km/h 93 % 0.0 mm
02:37 8.2 °C 7.1 °C 1012.8 hPa Calm   3.2 km/h 93 % 0.0 mm
02:42 8.2 °C 7.1 °C 1012.8 hPa Calm   3.2 km/h 93 % 0.0 mm
02:47 8.2 °C 7.1 °C 1012.8 hPa Calm   3.2 km/h 93 % 0.0 mm
02:52 8.1 °C 7.0 °C 1012.8 hPa Calm     93 % 0.0 mm
02:57 8.0 °C 6.9 °C 1012.8 hPa Calm     93 % 0.0 mm
03:02 7.8 °C 6.7 °C 1012.8 hPa Calm     93 % 0.0 mm
03:12 7.2 °C 6.0 °C 1012.8 hPa Calm     92 % 0.0 mm
03:17 6.9 °C 5.8 °C 1012.8 hPa Calm     93 % 0.0 mm
03:22 6.7 °C 5.6 °C 1012.8 hPa Calm     93 % 0.0 mm
03:27 6.6 °C 5.7 °C 1012.8 hPa Calm     94 % 0.0 mm
03:37 6.3 °C 5.4 °C 1012.8 hPa Calm     94 % 0.0 mm
03:42 6.4 °C 5.8 °C 1012.8 hPa Calm     96 % 0.0 mm
03:47 6.5 °C 5.9 °C 1012.8 hPa Calm     96 % 0.0 mm
03:52 6.5 °C 5.9 °C 1012.8 hPa Calm     96 % 0.0 mm
03:57 6.4 °C 5.7 °C 1012.8 hPa Calm     95 % 0.0 mm
04:02 6.2 °C 5.5 °C 1012.8 hPa Calm     95 % 0.0 mm
04:07 6.1 °C 5.4 °C 1012.8 hPa Calm     95 % 0.0 mm
04:12 6.0 °C 5.4 °C 1012.8 hPa Calm     96 % 0.0 mm
04:17 6.0 °C 5.4 °C 1012.8 hPa Calm     96 % 0.0 mm
04:22 5.9 °C 5.3 °C 1012.4 hPa Calm     96 % 0.0 mm
04:27 5.7 °C 5.0 °C 1012.8 hPa Calm     95 % 0.0 mm
04:32 5.5 °C 4.8 °C 1012.8 hPa Calm     95 % 0.0 mm
04:37 5.3 °C 4.6 °C 1012.8 hPa Calm     95 % 0.0 mm
04:47 5.0 °C 4.3 °C 1012.8 hPa Calm     95 % 0.0 mm
04:52 5.1 °C 4.5 °C 1012.8 hPa Calm     96 % 0.0 mm
04:57 5.1 °C 4.5 °C 1012.8 hPa Calm     96 % 0.0 mm
05:02 5.1 °C 4.5 °C 1012.8 hPa Calm     96 % 0.0 mm
05:07 4.8 °C 4.2 °C 1012.8 hPa Calm     96 % 0.0 mm
05:12 4.5 °C 3.8 °C 1012.8 hPa Calm     95 % 0.0 mm
05:17 4.6 °C 4.2 °C 1012.8 hPa Calm   1.6 km/h 97 % 0.0 mm
05:22 5.1 °C 4.7 °C 1012.8 hPa Calm   1.6 km/h 97 % 0.0 mm
05:27 4.9 °C 4.5 °C 1012.8 hPa Calm   1.6 km/h 97 % 0.0 mm
05:32 4.6 °C 4.0 °C 1012.8 hPa Calm   1.6 km/h 96 % 0.0 mm
05:37 4.4 °C 3.8 °C 1012.8 hPa Calm   1.6 km/h 96 % 0.0 mm
05:42 4.2 °C 3.6 °C 1012.8 hPa Calm   1.6 km/h 96 % 0.0 mm
05:47 4.2 °C 3.6 °C 1012.8 hPa Calm     96 % 0.0 mm
05:52 4.2 °C 3.8 °C 1012.8 hPa Calm     97 % 0.0 mm
05:57 4.2 °C 3.8 °C 1012.8 hPa Calm     97 % 0.0 mm
06:02 4.2 °C 3.8 °C 1012.8 hPa Calm     97 % 0.0 mm
06:12 4.0 °C 3.6 °C 1012.8 hPa Calm     97 % 0.0 mm
06:17 3.9 °C 3.5 °C 1012.8 hPa Calm     97 % 0.0 mm
06:22 3.9 °C 3.5 °C 1012.8 hPa Calm     97 % 0.0 mm
06:32 4.0 °C 3.6 °C 1012.8 hPa Calm     97 % 0.0 mm
06:37 4.0 °C 3.6 °C 1012.8 hPa Calm     97 % 0.0 mm
06:42 3.9 °C 3.5 °C 1012.8 hPa Calm     97 % 0.0 mm
06:47 4.2 °C 3.8 °C 1012.8 hPa Calm     97 % 0.0 mm
06:52 4.4 °C 4.1 °C 1012.4 hPa Calm     98 % 0.0 mm
06:57 4.4 °C 4.1 °C 1012.8 hPa Calm     98 % 0.0 mm
07:02 4.4 °C 4.0 °C 1012.8 hPa Calm     97 % 0.0 mm
07:07 4.4 °C 4.0 °C 1012.8 hPa Calm     97 % 0.0 mm
07:12 4.3 °C 3.9 °C 1012.8 hPa Calm     97 % 0.0 mm
07:17 4.3 °C 3.9 °C 1012.8 hPa Calm     97 % 0.0 mm
07:27 4.2 °C 3.8 °C 1013.1 hPa Calm     97 % 0.0 mm
07:32 4.3 °C 3.9 °C 1013.1 hPa Calm     97 % 0.0 mm
07:42 4.2 °C 3.8 °C 1013.1 hPa Calm     97 % 0.0 mm
07:47 4.2 °C 3.8 °C 1013.1 hPa Calm     97 % 0.0 mm
07:52 4.3 °C 3.9 °C 1013.1 hPa Calm     97 % 0.0 mm
07:57 4.4 °C 4.0 °C 1013.1 hPa Calm     97 % 0.0 mm
08:02 4.5 °C 4.1 °C 1013.1 hPa Calm     97 % 0.0 mm
08:07 4.6 °C 4.2 °C 1013.1 hPa Calm     97 % 0.0 mm
08:12 4.7 °C 4.3 °C 1013.1 hPa Calm     97 % 0.0 mm
08:17 4.7 °C 4.3 °C 1013.1 hPa West 1.6 km/h 1.6 km/h 97 % 0.0 mm
08:22 4.7 °C 4.3 °C 1013.1 hPa Calm   1.6 km/h 97 % 0.0 mm
08:27 4.8 °C 4.4 °C 1013.1 hPa Calm   1.6 km/h 97 % 0.0 mm
08:32 4.9 °C 4.5 °C 1013.1 hPa Calm   1.6 km/h 97 % 0.0 mm
08:37 5.0 °C 4.6 °C 1013.1 hPa Calm   1.6 km/h 97 % 0.0 mm
08:42 5.0 °C 4.6 °C 1013.1 hPa Calm   1.6 km/h 97 % 0.0 mm
08:47 5.2 °C 4.8 °C 1013.1 hPa Calm   1.6 km/h 97 % 0.0 mm
08:52 5.3 °C 4.9 °C 1013.1 hPa Calm     97 % 0.0 mm
09:02 5.7 °C 5.4 °C 1013.1 hPa Calm     98 % 0.0 mm
09:17 6.2 °C 5.9 °C 1013.4 hPa WSW 1.6 km/h 1.6 km/h 98 % 0.0 mm
09:22 6.3 °C 6.0 °C 1013.4 hPa Calm   1.6 km/h 98 % 0.0 mm
09:32 7.1 °C 6.8 °C 1013.4 hPa Calm   3.2 km/h 98 % 0.0 mm
09:42 7.7 °C 7.4 °C 1013.4 hPa Calm   3.2 km/h 98 % 0.0 mm
09:47 7.9 °C 7.6 °C 1013.1 hPa Calm   3.2 km/h 98 % 0.0 mm
09:52 8.5 °C 8.2 °C 1013.1 hPa East 1.6 km/h 1.6 km/h 98 % 0.0 mm
09:57 8.8 °C 8.3 °C 1013.4 hPa Calm   1.6 km/h 97 % 0.0 mm
10:02 9.1 °C 8.6 °C 1013.1 hPa Calm   3.2 km/h 97 % 0.0 mm
10:07 9.2 °C 8.4 °C 1013.1 hPa Calm   4.8 km/h 95 % 0.0 mm
10:12 9.6 °C 8.7 °C 1013.1 hPa West 1.6 km/h 4.8 km/h 94 % 0.0 mm
10:17 10.0 °C 8.8 °C 1013.4 hPa WSW 1.6 km/h 4.8 km/h 92 % 0.0 mm
10:22 10.4 °C 9.0 °C 1013.4 hPa Calm   6.4 km/h 91 % 0.0 mm
10:27 10.9 °C 9.3 °C 1013.1 hPa West 1.6 km/h 6.4 km/h 90 % 0.0 mm
10:32 11.2 °C 8.9 °C 1013.4 hPa NW 1.6 km/h 6.4 km/h 86 % 0.0 mm
10:42 11.7 °C 9.4 °C 1013.1 hPa WSW 1.6 km/h 8.0 km/h 86 % 0.0 mm
10:47 12.3 °C 10.0 °C 1013.4 hPa Calm   8.0 km/h 86 % 0.0 mm
10:52 12.6 °C 9.8 °C 1013.4 hPa West 3.2 km/h 6.4 km/h 83 % 0.0 mm
10:57 12.8 °C 9.8 °C 1013.4 hPa WSW 1.6 km/h 6.4 km/h 82 % 0.0 mm
11:02 13.2 °C 10.4 °C 1013.4 hPa Calm   8.0 km/h 83 % 0.0 mm
11:12 13.4 °C 10.6 °C 1013.4 hPa Calm   8.0 km/h 83 % 0.0 mm
11:17 13.8 °C 10.2 °C 1013.1 hPa SW 3.2 km/h 8.0 km/h 79 % 0.0 mm
11:22 13.8 °C 10.0 °C 1013.1 hPa WSW 3.2 km/h 8.0 km/h 78 % 0.0 mm
11:27 14.2 °C 11.2 °C 1013.1 hPa West 4.8 km/h 9.7 km/h 82 % 0.0 mm
11:32 14.3 °C 10.1 °C 1013.1 hPa Calm   11.3 km/h 76 % 0.0 mm
11:42 14.4 °C 10.6 °C 1012.8 hPa Calm   11.3 km/h 78 % 0.0 mm
11:47 14.1 °C 9.7 °C 1012.8 hPa Calm   9.7 km/h 75 % 0.0 mm
11:52 14.3 °C 10.1 °C 1012.8 hPa SW 1.6 km/h 9.7 km/h 76 % 0.0 mm
11:57 14.4 °C 10.4 °C 1012.8 hPa WNW 3.2 km/h 9.7 km/h 77 % 0.0 mm
12:02 14.7 °C 9.5 °C 1012.4 hPa West 1.6 km/h 9.7 km/h 71 % 0.0 mm
12:12 14.9 °C 10.1 °C 1012.4 hPa SW 3.2 km/h 9.7 km/h 73 % 0.0 mm
12:17 15.1 °C 10.3 °C 1012.4 hPa WNW 1.6 km/h 9.7 km/h 73 % 0.0 mm
12:22 15.1 °C 9.9 °C 1012.4 hPa Calm   9.7 km/h 71 % 0.0 mm
12:32 15.4 °C 10.2 °C 1012.4 hPa WSW 8.0 km/h 8.0 km/h 71 % 0.0 mm
12:37 15.6 °C 10.6 °C 1012.1 hPa WNW 3.2 km/h 14.5 km/h 72 % 0.0 mm
12:42 15.4 °C 9.3 °C 1012.1 hPa Calm   9.7 km/h 67 % 0.0 mm
12:47 15.6 °C 10.1 °C 1012.1 hPa NNW 6.4 km/h 9.7 km/h 70 % 0.0 mm
12:52 15.5 °C 9.4 °C 1012.1 hPa NNW 8.0 km/h 9.7 km/h 67 % 0.0 mm
12:57 15.7 °C 11.1 °C 1012.1 hPa NNW 3.2 km/h 9.7 km/h 74 % 0.0 mm
13:02 16.1 °C 9.7 °C 1012.1 hPa WSW 3.2 km/h 9.7 km/h 66 % 0.0 mm
13:07 16.2 °C 10.1 °C 1012.1 hPa NNW 1.6 km/h 9.7 km/h 67 % 0.0 mm
13:12 16.1 °C 10.2 °C 1012.1 hPa West 3.2 km/h 12.9 km/h 68 % 0.0 mm
13:17 16.5 °C 11.0 °C 1012.1 hPa NW 1.6 km/h 12.9 km/h 70 % 0.0 mm
13:22 16.8 °C 10.4 °C 1011.7 hPa West 3.2 km/h 11.3 km/h 66 % 0.0 mm
13:32 17.0 °C 10.1 °C 1011.7 hPa SW 3.2 km/h 9.7 km/h 64 % 0.0 mm
13:37 17.3 °C 11.1 °C 1011.7 hPa Calm   9.7 km/h 67 % 0.0 mm
13:42 16.9 °C 9.6 °C 1011.7 hPa NNW 3.2 km/h 9.7 km/h 62 % 0.0 mm
13:47 16.9 °C 10.0 °C 1011.7 hPa West 1.6 km/h 9.7 km/h 64 % 0.0 mm
13:52 17.1 °C 10.0 °C 1011.7 hPa NNW 1.6 km/h 11.3 km/h 63 % 0.0 mm
13:57 17.3 °C 10.9 °C 1011.7 hPa WSW 3.2 km/h 11.3 km/h 66 % 0.0 mm
14:02 17.4 °C 9.8 °C 1011.7 hPa SW 3.2 km/h 11.3 km/h 61 % 0.0 mm
14:07 17.5 °C 9.6 °C 1011.4 hPa Calm   8.0 km/h 60 % 0.0 mm
14:12 17.7 °C 10.3 °C 1011.4 hPa NNW 3.2 km/h 8.0 km/h 62 % 0.0 mm
14:17 17.6 °C 10.0 °C 1011.4 hPa WNW 1.6 km/h 9.7 km/h 61 % 0.0 mm
14:22 17.4 °C 9.6 °C 1011.4 hPa West 1.6 km/h 9.7 km/h 60 % 0.0 mm
14:27 17.4 °C 9.8 °C 1011.4 hPa ENE 3.2 km/h 9.7 km/h 61 % 0.0 mm
14:32 17.5 °C 10.1 °C 1011.4 hPa Calm   9.7 km/h 62 % 0.0 mm
14:42 17.4 °C 10.5 °C 1011.4 hPa West 3.2 km/h 9.7 km/h 64 % 0.0 mm
14:52 17.2 °C 10.8 °C 1011.1 hPa West 3.2 km/h 9.7 km/h 66 % 0.0 mm
14:57 17.2 °C 10.3 °C 1011.1 hPa Calm   6.4 km/h 64 % 0.0 mm
15:02 17.2 °C 9.9 °C 1011.1 hPa WSW 3.2 km/h 6.4 km/h 62 % 0.0 mm
15:12 17.2 °C 10.6 °C 1011.1 hPa Calm   6.4 km/h 65 % 0.0 mm
15:17 17.2 °C 10.1 °C 1011.1 hPa Calm   6.4 km/h 63 % 0.0 mm
15:22 17.2 °C 9.9 °C 1011.1 hPa Calm   6.4 km/h 62 % 0.0 mm
15:27 17.1 °C 10.2 °C 1010.7 hPa WSW 1.6 km/h 4.8 km/h 64 % 0.0 mm
15:32 16.8 °C 10.0 °C 1010.7 hPa Calm   6.4 km/h 64 % 0.0 mm
15:37 16.6 °C 10.2 °C 1010.7 hPa Calm   6.4 km/h 66 % 0.0 mm
15:42 16.4 °C 9.8 °C 1010.7 hPa Calm   6.4 km/h 65 % 0.0 mm
15:47 16.3 °C 9.7 °C 1010.7 hPa Calm   4.8 km/h 65 % 0.0 mm
15:52 16.2 °C 9.8 °C 1010.7 hPa Calm   4.8 km/h 66 % 0.0 mm
15:57 16.1 °C 10.6 °C 1010.7 hPa Calm   4.8 km/h 70 % 0.0 mm
16:02 15.9 °C 10.6 °C 1010.7 hPa Calm   1.6 km/h 71 % 0.0 mm
16:12 15.8 °C 10.3 °C 1010.7 hPa Calm   1.6 km/h 70 % 0.0 mm
16:17 15.7 °C 10.9 °C 1010.7 hPa Calm   1.6 km/h 73 % 0.0 mm
16:22 15.8 °C 10.3 °C 1010.7 hPa Calm   1.6 km/h 70 % 0.0 mm
16:32 16.3 °C 9.7 °C 1010.7 hPa WSW 1.6 km/h 1.6 km/h 65 % 0.0 mm
16:47 16.7 °C 8.9 °C 1010.4 hPa Calm   1.6 km/h 60 % 0.0 mm
16:52 16.9 °C 8.8 °C 1010.4 hPa Calm   1.6 km/h 59 % 0.0 mm
16:57 17.0 °C 9.7 °C 1010.4 hPa Calm   1.6 km/h 62 % 0.0 mm
17:02 17.1 °C 10.0 °C 1010.4 hPa Calm   1.6 km/h 63 % 0.0 mm
17:07 16.9 °C 10.3 °C 1010.4 hPa Calm   3.2 km/h 65 % 0.0 mm
17:17 16.5 °C 10.4 °C 1010.4 hPa Calm   3.2 km/h 67 % 0.0 mm
17:22 16.3 °C 10.2 °C 1010.4 hPa NW 1.6 km/h 3.2 km/h 67 % 0.0 mm
17:32 16.2 °C 10.5 °C 1010.4 hPa Calm   3.2 km/h 69 % 0.0 mm
17:37 16.2 °C 10.7 °C 1010.0 hPa Calm   3.2 km/h 70 % 0.0 mm
17:42 16.1 °C 10.8 °C 1010.0 hPa NNW 1.6 km/h 1.6 km/h 71 % 0.0 mm
17:47 16.1 °C 11.7 °C 1010.4 hPa Calm   1.6 km/h 75 % 0.0 mm
17:52 15.8 °C 11.8 °C 1010.4 hPa Calm   1.6 km/h 77 % 0.0 mm
17:57 15.5 °C 10.5 °C 1010.4 hPa SW 1.6 km/h 3.2 km/h 72 % 0.0 mm
18:02 15.3 °C 9.9 °C 1010.4 hPa WSW 1.6 km/h 8.0 km/h 70 % 0.0 mm
18:12 14.8 °C 9.0 °C 1010.7 hPa SW 6.4 km/h 8.0 km/h 68 % 0.0 mm
18:17 14.2 °C 9.4 °C 1010.7 hPa SW 4.8 km/h 8.0 km/h 73 % 0.0 mm
18:22 13.7 °C 9.3 °C 1010.7 hPa SW 6.4 km/h 14.5 km/h 75 % 0.0 mm
18:27 13.2 °C 9.8 °C 1011.1 hPa SW 3.2 km/h 14.5 km/h 80 % 0.3 mm
18:32 12.8 °C 10.0 °C 1011.1 hPa SW 1.6 km/h 14.5 km/h 83 % 0.3 mm
18:37 12.5 °C 9.9 °C 1010.7 hPa SW 1.6 km/h 8.0 km/h 84 % 0.3 mm
18:42 12.3 °C 10.0 °C 1010.7 hPa SW 1.6 km/h 4.8 km/h 86 % 0.5 mm
18:47 12.2 °C 9.9 °C 1010.7 hPa Calm   3.2 km/h 86 % 0.5 mm
18:52 12.1 °C 10.0 °C 1010.7 hPa Calm   3.2 km/h 87 % 0.5 mm
18:57 12.1 °C 10.0 °C 1010.7 hPa Calm   3.2 km/h 87 % 0.5 mm
19:02 12.0 °C 10.1 °C 1010.4 hPa Calm   3.2 km/h 88 % 0.5 mm
19:12 12.1 °C 10.3 °C 1010.4 hPa Calm   1.6 km/h 89 % 0.5 mm
19:17 12.1 °C 10.3 °C 1010.4 hPa Calm   1.6 km/h 89 % 0.5 mm
19:22 12.0 °C 10.4 °C 1010.7 hPa Calm     90 % 0.5 mm
19:27 11.9 °C 10.1 °C 1010.7 hPa Calm   1.6 km/h 89 % 0.5 mm
19:32 11.8 °C 10.0 °C 1010.4 hPa Calm   1.6 km/h 89 % 0.5 mm
19:42 11.8 °C 9.9 °C 1010.4 hPa Calm   1.6 km/h 88 % 0.3 mm
19:52 11.8 °C 9.9 °C 1010.4 hPa Calm   1.6 km/h 88 % 0.3 mm
19:57 11.7 °C 9.8 °C 1010.4 hPa Calm   1.6 km/h 88 % 0.3 mm
20:02 11.7 °C 9.8 °C 1010.4 hPa Calm   1.6 km/h 88 % 0.0 mm
20:12 11.6 °C 10.0 °C 1010.4 hPa Calm     90 % 0.3 mm
20:17 11.4 °C 9.8 °C 1010.4 hPa Calm     90 % 0.3 mm
20:22 11.3 °C 9.9 °C 1010.0 hPa Calm     91 % 0.5 mm
20:32 11.2 °C 9.9 °C 1010.0 hPa Calm     92 % 0.5 mm
20:42 11.0 °C 9.9 °C 1010.0 hPa Calm     93 % 0.5 mm
20:47 10.9 °C 9.8 °C 1009.7 hPa Calm     93 % 0.5 mm
20:52 10.9 °C 9.8 °C 1009.7 hPa Calm     93 % 0.5 mm
21:02 10.8 °C 9.9 °C 1009.4 hPa Calm     94 % 0.8 mm
21:12 10.8 °C 9.9 °C 1009.4 hPa Calm   1.6 km/h 94 % 0.5 mm
21:17 10.7 °C 9.8 °C 1009.4 hPa Calm   1.6 km/h 94 % 0.5 mm
21:27 10.7 °C 9.8 °C 1009.4 hPa Calm   1.6 km/h 94 % 0.5 mm
21:32 10.6 °C 9.7 °C 1009.4 hPa Calm     94 % 0.3 mm
21:37 10.6 °C 9.7 °C 1009.4 hPa Calm     94 % 0.3 mm
21:42 10.5 °C 9.6 °C 1009.4 hPa Calm     94 % 0.3 mm
21:47 10.4 °C 9.6 °C 1009.4 hPa Calm     95 % 0.3 mm
21:57 10.4 °C 9.6 °C 1009.4 hPa Calm     95 % 0.0 mm
22:02 10.3 °C 9.5 °C 1009.4 hPa Calm     95 % 0.0 mm
22:12 10.3 °C 9.5 °C 1009.4 hPa Calm     95 % 0.0 mm
22:17 10.3 °C 9.5 °C 1009.0 hPa Calm     95 % 0.0 mm
22:22 10.2 °C 9.4 °C 1009.0 hPa Calm     95 % 0.0 mm
22:27 10.2 °C 9.4 °C 1009.0 hPa Calm     95 % 0.0 mm
22:32 10.2 °C 9.4 °C 1009.0 hPa Calm     95 % 0.0 mm
22:37 10.2 °C 9.4 °C 1009.0 hPa Calm     95 % 0.0 mm
22:42 10.2 °C 9.4 °C 1009.0 hPa Calm     95 % 0.0 mm
22:47 10.2 °C 9.4 °C 1009.4 hPa Calm     95 % 0.0 mm
22:52 10.2 °C 9.4 °C 1009.0 hPa Calm     95 % 0.0 mm
22:57 10.2 °C 9.4 °C 1009.0 hPa Calm     95 % 0.0 mm
23:02 10.2 °C 9.6 °C 1009.4 hPa Calm     96 % 0.0 mm
23:12 10.2 °C 9.6 °C 1009.4 hPa Calm     96 % 0.3 mm
23:17 10.3 °C 9.7 °C 1009.4 hPa Calm     96 % 0.3 mm
23:22 10.3 °C 9.7 °C 1009.4 hPa Calm     96 % 0.5 mm
23:27 10.3 °C 9.7 °C 1009.4 hPa Calm     96 % 0.5 mm
23:32 10.3 °C 9.7 °C 1009.4 hPa Calm     96 % 0.5 mm
23:37 10.3 °C 9.7 °C 1009.0 hPa Calm     96 % 0.5 mm
23:42 10.3 °C 9.7 °C 1009.0 hPa Calm     96 % 0.5 mm
23:47 10.3 °C 9.7 °C 1009.0 hPa Calm     96 % 0.5 mm
23:52 10.3 °C 9.7 °C 1009.4 hPa Calm     96 % 0.5 mm
23:57 10.3 °C 9.7 °C 1009.4 hPa Calm     96 % 0.5 mm
Meteo18
Compliments of Weather Underground - 4 mb

Script developed by  Jim McMurry - jmcmurry@mwt.net Adapted for the template by  Wim van der Kuil - Leuven-Template.eu

You find our weather info also at:

European Weather Network

Weather Underground

Equipment we use:

Weather-station
Davis Vue

Weather-program
Meteohub

Weather-server
Raspberry PI 2 B+

Provider
1 and 1

Davis Vue

Meteohub

Raspberry PI 2 B+

1 and 1